createdAt,value
2023-03-10T00:00:49.116Z,97775.31
2023-03-10T00:03:16.034Z,97780.91
2023-03-10T00:05:43.185Z,97769.09
2023-03-10T00:08:10.120Z,97769.34
2023-03-10T00:10:38.153Z,97760.78
2023-03-10T00:13:05.090Z,97764.72
2023-03-10T00:15:32.021Z,97756.19
2023-03-10T00:17:58.955Z,97744.94
2023-03-10T00:20:26.414Z,97748.69
2023-03-10T00:22:53.326Z,97735.56
2023-03-10T00:25:20.235Z,97744.63
2023-03-10T00:27:47.155Z,97739.53
2023-03-10T00:30:15.021Z,97742.44
2023-03-10T00:32:41.987Z,97736.56
2023-03-10T00:35:09.224Z,97735.50
2023-03-10T00:37:38.553Z,97737.38
2023-03-10T00:40:12.344Z,97721.56
2023-03-10T00:42:39.419Z,97723.41
2023-03-10T00:45:07.221Z,97716.47
2023-03-10T00:47:34.220Z,97729.25
2023-03-10T00:50:01.513Z,97703.38
2023-03-10T00:52:33.287Z,97716.97
2023-03-10T00:55:00.224Z,97711.63
2023-03-10T00:57:27.231Z,97715.56
2023-03-10T00:59:54.307Z,97711.31
2023-03-10T01:02:21.649Z,97707.28
2023-03-10T01:04:48.985Z,97708.34
2023-03-10T01:07:15.977Z,97693.84
2023-03-10T01:09:43.218Z,97697.25
2023-03-10T01:12:10.249Z,97680.94
2023-03-10T01:14:38.257Z,97678.19
2023-03-10T01:17:05.409Z,97680.78
2023-03-10T01:19:32.617Z,97675.38
2023-03-10T01:22:01.479Z,97669.97
2023-03-10T01:24:28.431Z,97661.88
2023-03-10T01:26:55.393Z,97658.66
2023-03-10T01:29:22.469Z,97646.88
2023-03-10T01:31:49.419Z,97644.44
2023-03-10T01:34:16.426Z,97634.03
2023-03-10T01:36:43.395Z,97635.06
2023-03-10T01:39:10.392Z,97627.56
2023-03-10T01:41:40.441Z,97631.28
2023-03-10T01:44:18.539Z,97618.44
2023-03-10T01:46:50.227Z,97625.06
2023-03-10T01:49:26.388Z,97623.44
2023-03-10T01:52:05.128Z,97621.03
2023-03-10T01:54:53.775Z,97626.84
2023-03-10T01:57:29.932Z,97623.63
2023-03-10T01:59:58.484Z,97619.09
2023-03-10T02:02:26.987Z,97612.16
2023-03-10T02:04:55.636Z,97616.69
2023-03-10T02:07:28.830Z,97611.81
2023-03-10T02:09:56.729Z,97612.63
2023-03-10T02:12:24.057Z,97610.22
2023-03-10T02:14:52.548Z,97601.66
2023-03-10T02:17:23.107Z,97584.06
2023-03-10T02:19:59.528Z,97599.72
2023-03-10T02:22:27.195Z,97601.09
2023-03-10T02:25:37.282Z,97599.72
2023-03-10T02:28:05.079Z,97596.25
2023-03-10T02:30:41.396Z,97584.22
2023-03-10T02:33:18.381Z,97591.97
2023-03-10T02:35:46.025Z,97590.91
2023-03-10T02:38:16.824Z,97578.66
2023-03-10T02:40:50.745Z,97574.84
2023-03-10T02:43:30.381Z,97576.94
2023-03-10T02:46:06.964Z,97584.69
2023-03-10T02:48:39.541Z,97576.69
2023-03-10T02:51:31.071Z,97571.63
2023-03-10T02:54:02.069Z,97567.91
2023-03-10T02:56:30.970Z,97567.09
2023-03-10T02:58:59.615Z,97562.59
2023-03-10T03:01:27.243Z,97561.78
2023-03-10T03:03:56.091Z,97561.78
2023-03-10T03:06:23.405Z,97549.50
2023-03-10T03:08:50.643Z,97552.97
2023-03-10T03:11:20.033Z,97550.31
2023-03-10T03:13:47.586Z,97550.31
2023-03-10T03:16:15.300Z,97542.88
2023-03-10T03:18:44.314Z,97540.22
2023-03-10T03:21:18.231Z,97538.63
2023-03-10T03:23:48.007Z,97537.56
2023-03-10T03:26:26.821Z,97542.09
2023-03-10T03:29:00.276Z,97533.84
2023-03-10T03:31:30.976Z,97526.09
2023-03-10T03:34:06.374Z,97527.50
2023-03-10T03:36:33.912Z,97524.84
2023-03-10T03:39:00.965Z,97527.50
2023-03-10T03:41:30.900Z,97520.31
2023-03-10T03:43:57.966Z,97523.53
2023-03-10T03:46:25.209Z,97521.66
2023-03-10T03:48:52.218Z,97519.00
2023-03-10T03:51:19.907Z,97529.66
2023-03-10T03:53:47.213Z,97523.28
2023-03-10T03:56:14.464Z,97521.41
2023-03-10T03:58:44.285Z,97524.09
2023-03-10T04:01:12.745Z,97523.88
2023-03-10T04:03:44.497Z,97522.22
2023-03-10T04:06:14.963Z,97512.16
2023-03-10T04:08:42.050Z,97519.34
2023-03-10T04:11:09.628Z,97525.47
2023-03-10T04:13:41.350Z,97522.00
2023-03-10T04:16:08.644Z,97530.78
2023-03-10T04:18:37.915Z,97531.59
2023-03-10T04:21:05.638Z,97527.09
2023-03-10T04:23:34.028Z,97521.75
2023-03-10T04:26:01.135Z,97519.09
2023-03-10T04:28:30.293Z,97511.09
2023-03-10T04:30:57.578Z,97514.00
2023-03-10T04:33:27.793Z,97503.34
2023-03-10T04:35:54.803Z,97502.56
2023-03-10T04:38:23.677Z,97511.56
2023-03-10T04:40:56.491Z,97485.44
2023-03-10T04:43:27.461Z,97480.91
2023-03-10T04:45:55.372Z,97482.22
2023-03-10T04:48:24.324Z,97485.91
2023-03-10T04:51:04.324Z,97481.09
2023-03-10T04:53:36.385Z,97472.03
2023-03-10T04:56:07.808Z,97472.53
2023-03-10T04:58:36.943Z,97473.34
2023-03-10T05:01:13.116Z,97467.69
2023-03-10T05:03:45.286Z,97462.94
2023-03-10T05:06:22.012Z,97467.69
2023-03-10T05:09:04.012Z,97474.63
2023-03-10T05:11:32.619Z,97465.84
2023-03-10T05:13:59.916Z,97462.38
2023-03-10T05:16:27.027Z,97461.31
2023-03-10T05:18:54.207Z,97450.91
2023-03-10T05:21:25.330Z,97444.78
2023-03-10T05:23:54.626Z,97433.31
2023-03-10T05:26:23.237Z,97423.47
2023-03-10T05:28:50.210Z,97413.34
2023-03-10T05:31:26.512Z,97418.66
2023-03-10T05:33:58.949Z,97397.84
2023-03-10T05:36:26.352Z,97413.00
2023-03-10T05:38:53.378Z,97404.47
2023-03-10T05:41:20.450Z,97401.00
2023-03-10T05:43:50.528Z,97404.13
2023-03-10T05:46:18.688Z,97413.19
2023-03-10T05:48:51.215Z,97416.91
2023-03-10T05:51:18.687Z,97407.56
2023-03-10T05:53:46.945Z,97405.13
2023-03-10T05:56:20.786Z,97408.81
2023-03-10T05:58:51.795Z,97403.50
2023-03-10T06:01:22.095Z,97398.19
2023-03-10T06:03:49.031Z,97394.72
2023-03-10T06:06:16.063Z,97403.50
2023-03-10T06:08:43.375Z,97394.97
2023-03-10T06:11:10.422Z,97398.97
2023-03-10T06:13:37.767Z,97399.78
2023-03-10T06:16:06.870Z,97378.50
2023-03-10T06:18:34.964Z,97386.25
2023-03-10T06:21:09.901Z,97372.13
2023-03-10T06:23:37.677Z,97375.91
2023-03-10T06:26:09.372Z,97380.97
2023-03-10T06:28:40.062Z,97383.16
2023-03-10T06:31:13.357Z,97378.66
2023-03-10T06:33:40.516Z,97370.41
2023-03-10T06:36:10.675Z,97374.41
2023-03-10T06:38:38.244Z,97376.88
2023-03-10T06:41:06.094Z,97367.00
2023-03-10T06:43:34.241Z,97376.34
2023-03-10T06:46:08.816Z,97370.22
2023-03-10T06:48:37.429Z,97368.13
2023-03-10T06:51:16.437Z,97366.50
2023-03-10T06:53:43.531Z,97363.38
2023-03-10T06:56:18.229Z,97363.38
2023-03-10T06:58:45.969Z,97359.41
2023-03-10T07:01:29.378Z,97365.53
2023-03-10T07:03:57.660Z,97367.47
2023-03-10T07:06:25.593Z,97372.28
2023-03-10T07:08:54.206Z,97368.56
2023-03-10T07:11:22.767Z,97367.28
2023-03-10T07:13:49.757Z,97366.75
2023-03-10T07:16:17.759Z,97375.09
2023-03-10T07:18:45.344Z,97374.31
2023-03-10T07:21:16.511Z,97373.84
2023-03-10T07:23:43.882Z,97369.63
2023-03-10T07:26:13.211Z,97378.47
2023-03-10T07:28:40.458Z,97375.63
2023-03-10T07:31:11.728Z,97371.94
2023-03-10T07:33:39.462Z,97380.56
2023-03-10T07:36:13.190Z,97400.09
2023-03-10T07:38:41.167Z,97387.06
2023-03-10T07:41:15.724Z,97400.94
2023-03-10T07:43:43.117Z,97410.59
2023-03-10T07:46:13.419Z,97427.72
2023-03-10T07:48:40.515Z,97417.34
2023-03-10T07:51:07.959Z,97430.19
2023-03-10T07:53:34.994Z,97410.47
2023-03-10T07:56:10.904Z,97384.03
2023-03-10T07:58:38.652Z,97379.28
2023-03-10T08:01:06.972Z,97378.69
2023-03-10T08:03:34.646Z,97377.63
2023-03-10T08:06:02.499Z,97411.41
2023-03-10T08:08:29.529Z,97410.81
2023-03-10T08:11:09.546Z,97416.88
2023-03-10T08:13:37.151Z,97427.50
2023-03-10T08:16:04.835Z,97449.00
2023-03-10T08:18:32.773Z,97451.28
2023-03-10T08:21:03.340Z,97450.19
2023-03-10T08:23:30.268Z,97448.50
2023-03-10T08:26:05.608Z,97463.59
2023-03-10T08:28:35.146Z,97461.13
2023-03-10T08:31:13.286Z,97450.94
2023-03-10T08:33:40.993Z,97461.03
2023-03-10T08:36:18.440Z,97463.63
2023-03-10T08:38:45.679Z,97467.34
2023-03-10T08:41:24.214Z,97473.44
2023-03-10T08:43:53.873Z,97465.44
2023-03-10T08:46:24.544Z,97465.44
2023-03-10T08:48:51.741Z,97473.66
2023-03-10T08:51:19.586Z,97459.78
2023-03-10T08:53:48.941Z,97452.84
2023-03-10T08:56:19.129Z,97457.38
2023-03-10T08:58:46.543Z,97459.78
2023-03-10T09:01:15.699Z,97458.19
2023-03-10T09:03:45.341Z,97457.38
2023-03-10T09:06:13.736Z,97457.94
2023-03-10T09:08:41.448Z,97452.13
2023-03-10T09:11:10.462Z,97473.19
2023-03-10T09:13:38.274Z,97470.00
2023-03-10T09:16:05.576Z,97475.34
2023-03-10T09:18:32.529Z,97473.00
2023-03-10T09:20:59.451Z,97484.75
2023-03-10T09:23:26.357Z,97475.25
2023-03-10T09:25:53.394Z,97483.31
2023-03-10T09:28:20.384Z,97483.63
2023-03-10T09:30:48.170Z,97479.41
2023-03-10T09:33:19.462Z,97477.84
2023-03-10T09:36:05.052Z,97487.53
2023-03-10T09:38:32.693Z,97486.00
2023-03-10T09:41:51.627Z,97476.47
2023-03-10T09:44:31.974Z,97484.03
2023-03-10T09:47:10.098Z,97483.84
2023-03-10T09:49:44.223Z,97486.56
2023-03-10T09:52:44.060Z,97479.94
2023-03-10T09:55:21.759Z,97493.81
2023-03-10T09:57:53.086Z,97489.28
2023-03-10T10:00:52.336Z,97480.47
2023-03-10T10:03:52.542Z,97486.88
2023-03-10T10:06:28.913Z,97474.59
2023-03-10T10:09:32.744Z,97479.84
2023-03-10T10:12:15.023Z,97477.72
2023-03-10T10:14:48.038Z,97489.66
2023-03-10T10:18:08.651Z,97478.69
2023-03-10T10:21:00.244Z,97489.03
2023-03-10T10:23:40.319Z,97491.94
2023-03-10T10:26:20.774Z,97490.59
2023-03-10T10:29:18.565Z,97489.22
2023-03-10T10:32:13.653Z,97489.78
2023-03-10T10:34:44.233Z,97492.75
2023-03-10T10:37:38.765Z,97492.28
2023-03-10T10:40:24.460Z,97511.22
2023-03-10T10:43:00.701Z,97488.84
2023-03-10T10:45:36.771Z,97506.44
2023-03-10T10:48:04.991Z,97490.44
2023-03-10T10:50:34.814Z,97508.63
2023-03-10T10:53:21.617Z,97498.53
2023-03-10T10:56:04.605Z,97507.41
2023-03-10T10:58:35.923Z,97521.59
2023-03-10T11:01:07.129Z,97517.88
2023-03-10T11:03:37.639Z,97502.69
2023-03-10T11:06:20.454Z,97518.41
2023-03-10T11:08:51.254Z,97525.13
2023-03-10T11:11:51.055Z,97514.94
2023-03-10T11:15:18.019Z,97512.53
2023-03-10T11:18:15.344Z,97516.53
2023-03-10T11:21:07.025Z,97517.00
2023-03-10T11:24:00.842Z,97505.53
2023-03-10T11:26:49.249Z,97519.13
2023-03-10T11:29:42.576Z,97516.44
2023-03-10T11:32:57.474Z,97520.19
2023-03-10T11:35:36.575Z,97524.69
2023-03-10T11:38:39.525Z,97529.78
2023-03-10T11:41:11.428Z,97511.91
2023-03-10T11:43:53.922Z,97524.69
2023-03-10T11:46:58.518Z,97523.91
2023-03-10T11:49:35.586Z,97525.97
2023-03-10T11:52:17.097Z,97523.56
2023-03-10T11:54:51.093Z,97502.25
2023-03-10T11:57:22.185Z,97509.69
2023-03-10T12:00:04.350Z,97502.16
2023-03-10T12:02:44.328Z,97515.50
2023-03-10T12:05:20.980Z,97503.75
2023-03-10T12:07:53.351Z,97498.88
2023-03-10T12:10:22.917Z,97501.00
2023-03-10T12:12:53.607Z,97492.94
2023-03-10T12:15:36.729Z,97514.19
2023-03-10T12:18:06.153Z,97490.19
2023-03-10T12:20:35.354Z,97505.88
2023-03-10T12:23:11.327Z,97497.34
2023-03-10T12:25:38.570Z,97492.81
2023-03-10T12:28:17.638Z,97500.00
2023-03-10T12:30:46.326Z,97497.63
2023-03-10T12:33:52.362Z,97492.81
2023-03-10T12:36:36.868Z,97498.16
2023-03-10T12:39:28.578Z,97505.56
2023-03-10T12:41:58.333Z,97498.38
2023-03-10T12:44:55.909Z,97493.28
2023-03-10T12:47:47.098Z,97487.41
2023-03-10T12:50:36.270Z,97492.75
2023-03-10T12:53:11.482Z,97482.00
2023-03-10T12:55:41.778Z,97480.41
2023-03-10T12:58:27.178Z,97489.13
2023-03-10T13:01:05.463Z,97480.56
2023-03-10T13:03:48.646Z,97475.72
2023-03-10T13:06:35.378Z,97465.28
2023-03-10T13:09:21.031Z,97478.25
2023-03-10T13:12:03.730Z,97475.25
2023-03-10T13:14:40.871Z,97485.59
2023-03-10T13:17:23.384Z,97468.50
2023-03-10T13:20:24.649Z,97472.47
2023-03-10T13:22:55.748Z,97469.81
2023-03-10T13:25:23.010Z,97466.59
2023-03-10T13:27:50.240Z,97477.97
2023-03-10T13:30:27.078Z,97494.19
2023-03-10T13:33:01.292Z,97485.59
2023-03-10T13:35:37.504Z,97484.50
2023-03-10T13:38:16.666Z,97491.59
2023-03-10T13:41:05.008Z,97488.84
2023-03-10T13:43:37.472Z,97490.84
2023-03-10T13:46:18.859Z,97483.59
2023-03-10T13:48:49.768Z,97483.28
2023-03-10T13:51:32.228Z,97493.59
2023-03-10T13:54:31.904Z,97484.47
2023-03-10T13:57:51.252Z,97478.34
2023-03-10T14:00:24.931Z,97483.69
2023-03-10T14:02:53.795Z,97492.47
2023-03-10T14:05:45.812Z,97496.19
2023-03-10T14:08:33.711Z,97494.63
2023-03-10T14:11:34.332Z,97526.09
2023-03-10T14:14:04.849Z,97523.44
2023-03-10T14:16:49.735Z,97539.16
2023-03-10T14:19:55.918Z,97553.81
2023-03-10T14:22:43.435Z,97534.25
2023-03-10T14:25:19.834Z,97537.69
2023-03-10T14:28:12.530Z,97554.47
2023-03-10T14:30:44.050Z,97561.41
2023-03-10T14:33:15.831Z,97556.09
2023-03-10T14:35:43.955Z,97557.72
2023-03-10T14:38:10.929Z,97573.91
2023-03-10T14:40:51.672Z,97582.69
2023-03-10T14:43:25.600Z,97585.84
2023-03-10T14:45:56.253Z,97609.00
2023-03-10T14:48:28.243Z,97613.16
2023-03-10T14:50:56.915Z,97607.28
2023-03-10T14:53:25.965Z,97611.25
2023-03-10T14:56:00.265Z,97642.59
2023-03-10T14:58:47.497Z,97638.78
2023-03-10T15:01:17.544Z,97632.31
2023-03-10T15:03:45.413Z,97663.13
2023-03-10T15:06:14.552Z,97650.50
2023-03-10T15:08:41.488Z,97651.78
2023-03-10T15:11:09.268Z,97653.88
2023-03-10T15:13:38.141Z,97676.19
2023-03-10T15:16:06.616Z,97663.38
2023-03-10T15:18:33.795Z,97671.81
2023-03-10T15:21:02.327Z,97686.41
2023-03-10T15:23:30.226Z,97714.50
2023-03-10T15:25:58.382Z,97699.81
2023-03-10T15:28:25.514Z,97721.50
2023-03-10T15:30:54.656Z,97718.53
2023-03-10T15:33:21.665Z,97721.84
2023-03-10T15:35:48.691Z,97729.72
2023-03-10T15:38:15.863Z,97730.19
2023-03-10T15:40:43.115Z,97736.44
2023-03-10T15:43:10.317Z,97729.94
2023-03-10T15:45:42.463Z,97732.25
2023-03-10T15:48:10.678Z,97747.84
2023-03-10T15:50:41.712Z,97739.53
2023-03-10T15:53:08.785Z,97758.81
2023-03-10T15:55:42.158Z,97743.34
2023-03-10T15:58:10.928Z,97747.47
2023-03-10T16:00:38.586Z,97746.09
2023-03-10T16:03:05.549Z,97758.59
2023-03-10T16:05:32.520Z,97759.59
2023-03-10T16:07:59.460Z,97767.00
2023-03-10T16:10:26.552Z,97755.78
2023-03-10T16:12:53.486Z,97784.41
2023-03-10T16:15:20.497Z,97745.25
2023-03-10T16:17:47.434Z,97748.16
2023-03-10T16:20:16.772Z,97761.63
2023-03-10T16:22:43.822Z,97753.91
2023-03-10T16:25:16.855Z,97771.94
2023-03-10T16:27:45.914Z,97757.59
2023-03-10T16:30:16.291Z,97771.94
2023-03-10T16:32:50.799Z,97809.09
2023-03-10T16:35:18.269Z,97786.00
2023-03-10T16:37:45.225Z,97787.41
2023-03-10T16:40:12.697Z,97798.03
2023-03-10T16:42:43.152Z,97788.22
2023-03-10T16:45:10.690Z,97774.91
2023-03-10T16:47:37.613Z,97779.19
2023-03-10T16:50:04.976Z,97783.69
2023-03-10T16:52:31.945Z,97760.84
2023-03-10T16:55:01.296Z,97797.22
2023-03-10T16:57:28.286Z,97788.44
2023-03-10T16:59:55.359Z,97783.94
2023-03-10T17:02:22.292Z,97794.78
2023-03-10T17:04:49.234Z,97789.91
2023-03-10T17:07:16.278Z,97809.53
2023-03-10T17:09:43.210Z,97808.38
2023-03-10T17:12:10.152Z,97822.72
2023-03-10T17:14:37.085Z,97836.41
2023-03-10T17:17:06.565Z,97826.03
2023-03-10T17:19:34.729Z,97797.84
2023-03-10T17:22:01.684Z,97784.22
2023-03-10T17:24:29.036Z,97812.25
2023-03-10T17:26:55.970Z,97815.13
2023-03-10T17:29:22.897Z,97822.75
2023-03-10T17:31:51.344Z,97842.56
2023-03-10T17:34:19.589Z,97863.44
2023-03-10T17:36:50.238Z,97903.69
2023-03-10T17:39:22.772Z,97896.63
2023-03-10T17:41:49.897Z,97891.75
2023-03-10T17:44:17.325Z,97920.38
2023-03-10T17:46:45.343Z,97908.56
2023-03-10T17:49:13.890Z,97920.22
2023-03-10T17:51:44.049Z,97921.66
2023-03-10T17:54:20.823Z,97929.50
2023-03-10T17:56:49.140Z,97953.22
2023-03-10T17:59:16.820Z,97938.97
2023-03-10T18:01:45.495Z,97928.03
2023-03-10T18:04:13.295Z,97928.09
2023-03-10T18:06:40.578Z,97922.63
2023-03-10T18:09:13.222Z,97920.25
2023-03-10T18:11:40.536Z,97914.78
2023-03-10T18:14:07.772Z,97905.84
2023-03-10T18:16:40.080Z,97925.84
2023-03-10T18:19:10.532Z,97931.81
2023-03-10T18:21:38.652Z,97929.59
2023-03-10T18:24:06.482Z,97946.97
2023-03-10T18:26:33.731Z,97915.56
2023-03-10T18:29:01.579Z,97914.97
2023-03-10T18:31:32.688Z,97939.06
2023-03-10T18:34:00.582Z,97937.84
2023-03-10T18:36:28.675Z,97947.63
2023-03-10T18:38:56.723Z,97961.91
2023-03-10T18:41:29.387Z,97957.63
2023-03-10T18:43:56.364Z,97950.28
2023-03-10T18:46:23.411Z,97966.59
2023-03-10T18:48:55.759Z,97956.00
2023-03-10T18:51:28.522Z,97966.00
2023-03-10T18:53:55.901Z,97974.97
2023-03-10T18:56:25.535Z,97989.25
2023-03-10T18:58:52.552Z,97992.94
2023-03-10T19:01:19.524Z,98003.94
2023-03-10T19:03:46.473Z,98027.78
2023-03-10T19:06:13.385Z,98018.66
2023-03-10T19:08:41.500Z,98037.38
2023-03-10T19:11:08.582Z,98076.31
2023-03-10T19:13:40.210Z,98065.13
2023-03-10T19:16:09.022Z,98075.13
2023-03-10T19:18:36.689Z,98100.81
2023-03-10T19:21:04.804Z,98071.25
2023-03-10T19:23:33.966Z,98089.41
2023-03-10T19:26:01.654Z,98105.06
2023-03-10T19:28:28.843Z,98110.78
2023-03-10T19:30:55.952Z,98130.34
2023-03-10T19:33:23.426Z,98165.78
2023-03-10T19:35:51.293Z,98144.81
2023-03-10T19:38:18.396Z,98167.84
2023-03-10T19:40:46.887Z,98218.75
2023-03-10T19:43:13.895Z,98219.97
2023-03-10T19:45:40.793Z,98224.22
2023-03-10T19:48:07.719Z,98265.31
2023-03-10T19:50:34.690Z,98275.25
2023-03-10T19:53:01.606Z,98275.22
2023-03-10T19:55:29.503Z,98258.53
2023-03-10T19:57:56.514Z,98265.22
2023-03-10T20:00:30.720Z,98283.28
2023-03-10T20:02:58.532Z,98298.09
2023-03-10T20:05:26.761Z,98300.72
2023-03-10T20:07:53.951Z,98298.63
2023-03-10T20:10:20.904Z,98289.84
2023-03-10T20:12:48.038Z,98300.03
2023-03-10T20:15:15.512Z,98316.25
2023-03-10T20:17:42.776Z,98307.72
2023-03-10T20:20:11.266Z,98320.47
2023-03-10T20:22:49.473Z,98337.53
2023-03-10T20:25:20.292Z,98342.38
2023-03-10T20:27:49.746Z,98360.66
2023-03-10T20:30:23.831Z,98367.94
2023-03-10T20:32:51.452Z,98385.00
2023-03-10T20:35:19.021Z,98386.22
2023-03-10T20:37:46.119Z,98407.53
2023-03-10T20:40:22.895Z,98415.84
2023-03-10T20:42:56.113Z,98438.19
2023-03-10T20:45:23.587Z,98441.38
2023-03-10T20:47:50.707Z,98452.97
2023-03-10T20:50:18.099Z,98467.53
2023-03-10T20:52:45.555Z,98467.72
2023-03-10T20:55:29.483Z,98470.56
2023-03-10T20:57:59.799Z,98492.72
2023-03-10T21:00:29.877Z,98506.88
2023-03-10T21:02:57.887Z,98513.19
2023-03-10T21:05:27.613Z,98517.84
2023-03-10T21:07:55.278Z,98522.50
2023-03-10T21:10:23.262Z,98568.38
2023-03-10T21:12:50.736Z,98559.81
2023-03-10T21:15:19.291Z,98541.53
2023-03-10T21:17:46.712Z,98564.22
2023-03-10T21:20:19.895Z,98556.66
2023-03-10T21:22:47.146Z,98577.78
2023-03-10T21:25:21.381Z,98574.50
2023-03-10T21:27:51.200Z,98580.78
2023-03-10T21:30:20.369Z,98580.78
2023-03-10T21:32:47.745Z,98581.78
2023-03-10T21:35:14.896Z,98593.53
2023-03-10T21:37:46.675Z,98579.69
2023-03-10T21:40:17.914Z,98571.13
2023-03-10T21:42:45.567Z,98586.16
2023-03-10T21:45:16.675Z,98581.88
2023-03-10T21:47:44.174Z,98576.13
2023-03-10T21:50:13.148Z,98593.78
2023-03-10T21:52:41.421Z,98584.06
2023-03-10T21:55:17.636Z,98593.16
2023-03-10T21:57:44.803Z,98598.44
2023-03-10T22:00:13.582Z,98589.91
2023-03-10T22:02:40.646Z,98587.25
2023-03-10T22:05:08.461Z,98595.19
2023-03-10T22:07:35.404Z,98599.59
2023-03-10T22:10:02.464Z,98606.72
2023-03-10T22:12:29.380Z,98610.53
2023-03-10T22:14:57.715Z,98604.44
2023-03-10T22:17:26.277Z,98633.28
2023-03-10T22:19:56.411Z,98626.56
2023-03-10T22:22:23.496Z,98634.50
2023-03-10T22:24:50.793Z,98638.13
2023-03-10T22:27:17.725Z,98651.66
2023-03-10T22:29:45.808Z,98661.59
2023-03-10T22:32:12.873Z,98660.97
2023-03-10T22:34:39.888Z,98644.47
2023-03-10T22:37:06.837Z,98645.47
2023-03-10T22:39:33.829Z,98660.66
2023-03-10T22:42:00.789Z,98675.88
2023-03-10T22:44:27.811Z,98668.09
2023-03-10T22:46:54.945Z,98679.66
2023-03-10T22:49:21.916Z,98686.13
2023-03-10T22:51:48.864Z,98687.28
2023-03-10T22:54:15.782Z,98685.84
2023-03-10T22:56:42.712Z,98693.13
2023-03-10T22:59:09.607Z,98696.75
2023-03-10T23:01:36.685Z,98692.81
2023-03-10T23:04:03.718Z,98705.38
2023-03-10T23:06:31.804Z,98690.69
2023-03-10T23:08:59.200Z,98695.16
2023-03-10T23:11:26.293Z,98684.97
2023-03-10T23:13:53.341Z,98695.66
2023-03-10T23:16:20.306Z,98698.50
2023-03-10T23:18:47.503Z,98703.13
2023-03-10T23:21:15.163Z,98702.66
2023-03-10T23:23:43.688Z,98700.38
2023-03-10T23:26:11.676Z,98699.75
2023-03-10T23:28:39.105Z,98700.88
2023-03-10T23:31:07.266Z,98711.81
2023-03-10T23:33:34.820Z,98694.66
2023-03-10T23:36:01.924Z,98725.84
2023-03-10T23:38:28.920Z,98709.53
2023-03-10T23:40:55.903Z,98719.44
2023-03-10T23:43:22.966Z,98720.59
2023-03-10T23:45:50.294Z,98725.22
2023-03-10T23:48:18.331Z,98742.22
2023-03-10T23:50:47.699Z,98739.91
2023-03-10T23:53:17.031Z,98751.66
2023-03-10T23:55:46.532Z,98746.69
2023-03-10T23:58:16.729Z,98762.88
